CTN197 LDZA-EDXW
Flight info
| Callsign | CTN197 |
|---|---|
| Flight time | N/A |
| Altitude | 38000 |
| Route | PETOV DCT DITIS DCT DEKOV Y621 ESLOR M748 BUMIL DCT ATTUS |
| Aircraft | A319/M-SDE3FGHIRWY/LB1 |
Departure
| Time | 2026-05-07 12:05 |
|---|---|
| Airport | Zagreb Franjo Tuđman International Airport (LDZA) |
Arrival
| Time | N/A |
|---|---|
| Airport | Westerland Sylt Airport (EDXW) |
| Time | Latitude | Longitude | Altitude | Speed | Heading |
|---|---|---|---|---|---|
| 2026-05-07 11:55 | 45.74264 | 16.07963 | 363 ft | 0 kts | 136° |
| 2026-05-07 12:00 | 45.74283 | 16.07940 | 360 ft | 4 kts | 143° |
| 2026-05-07 12:00 | 45.74301 | 16.07919 | 363 ft | 2 kts | 136° |
| 2026-05-07 12:00 | 45.74316 | 16.07891 | 367 ft | 4 kts | 100° |
| 2026-05-07 12:01 | 45.74313 | 16.07856 | 363 ft | 4 kts | 56° |
| 2026-05-07 12:01 | 45.74297 | 16.07830 | 361 ft | 3 kts | 47° |
| 2026-05-07 12:01 | 45.74295 | 16.07827 | 364 ft | 0 kts | 47° |
| 2026-05-07 12:02 | 45.74316 | 16.07855 | 364 ft | 8 kts | 44° |
| 2026-05-07 12:03 | 45.74392 | 16.07894 | 363 ft | 17 kts | 333° |
| 2026-05-07 12:03 | 45.74488 | 16.07764 | 359 ft | 20 kts | 316° |
| 2026-05-07 12:03 | 45.74600 | 16.07737 | 361 ft | 19 kts | 44° |
| 2026-05-07 12:03 | 45.74692 | 16.07878 | 365 ft | 20 kts | 47° |
| 2026-05-07 12:04 | 45.74788 | 16.08021 | 359 ft | 20 kts | 46° |
| 2026-05-07 12:04 | 45.74898 | 16.08015 | 358 ft | 19 kts | 316° |
| 2026-05-07 12:04 | 45.74934 | 16.07856 | 361 ft | 21 kts | 235° |
| 2026-05-07 12:04 | 45.74676 | 16.07464 | 359 ft | 92 kts | 226° |
| 2026-05-07 12:05 | 45.74088 | 16.06573 | 370 ft | 151 kts | 226° |
| 2026-05-07 12:05 | 45.73349 | 16.05443 | 926 ft | 158 kts | 226° |
| 2026-05-07 12:05 | 45.72581 | 16.04200 | 1467 ft | 174 kts | 228° |
| 2026-05-07 12:05 | 45.71749 | 16.02835 | 1987 ft | 191 kts | 227° |
| 2026-05-07 12:06 | 45.70826 | 16.01323 | 2508 ft | 214 kts | 229° |
| 2026-05-07 12:06 | 45.69793 | 15.99632 | 3054 ft | 238 kts | 229° |
| 2026-05-07 12:06 | 45.68873 | 15.97592 | 3756 ft | 251 kts | 251° |
| 2026-05-07 12:06 | 45.68713 | 15.95094 | 4684 ft | 258 kts | 279° |
| 2026-05-07 12:07 | 45.69469 | 15.92759 | 5653 ft | 266 kts | 309° |
| 2026-05-07 12:07 | 45.71013 | 15.91272 | 6627 ft | 276 kts | 340° |
| 2026-05-07 12:07 | 45.72954 | 15.91062 | 7546 ft | 285 kts | 1° |
| 2026-05-07 12:07 | 45.74948 | 15.91273 | 8491 ft | 289 kts | 2° |
| 2026-05-07 12:08 | 45.76941 | 15.91512 | 9406 ft | 294 kts | 2° |
| 2026-05-07 12:08 | 45.78997 | 15.91760 | 10213 ft | 302 kts | 2° |
| 2026-05-07 12:08 | 45.81176 | 15.92016 | 10546 ft | 326 kts | 2° |
| 2026-05-07 12:08 | 45.83487 | 15.92285 | 11127 ft | 339 kts | 2° |
| 2026-05-07 12:09 | 45.85864 | 15.92557 | 11866 ft | 346 kts | 2° |
| 2026-05-07 12:09 | 45.88279 | 15.92829 | 12648 ft | 351 kts | 2° |
| 2026-05-07 12:09 | 45.90734 | 15.93103 | 13426 ft | 357 kts | 2° |
| 2026-05-07 12:09 | 45.93231 | 15.93382 | 14132 ft | 363 kts | 2° |
| 2026-05-07 12:10 | 45.95768 | 15.93665 | 14787 ft | 368 kts | 2° |
| 2026-05-07 12:10 | 45.98336 | 15.93950 | 15455 ft | 373 kts | 2° |
| 2026-05-07 12:10 | 46.00940 | 15.94239 | 16110 ft | 378 kts | 2° |
| 2026-05-07 12:10 | 46.03581 | 15.94533 | 16767 ft | 383 kts | 2° |
| 2026-05-07 12:11 | 46.06255 | 15.94832 | 17422 ft | 388 kts | 2° |
| 2026-05-07 12:11 | 46.08970 | 15.95133 | 18002 ft | 395 kts | 2° |
| 2026-05-07 12:11 | 46.11730 | 15.95439 | 18576 ft | 400 kts | 2° |
| 2026-05-07 12:11 | 46.14520 | 15.95753 | 19155 ft | 404 kts | 2° |
| 2026-05-07 12:12 | 46.17334 | 15.96073 | 19768 ft | 407 kts | 1° |
| 2026-05-07 12:12 | 46.20166 | 15.96395 | 20365 ft | 410 kts | 1° |
| 2026-05-07 12:12 | 46.23024 | 15.96717 | 20982 ft | 413 kts | 1° |
| 2026-05-07 12:12 | 46.25904 | 15.97039 | 21596 ft | 417 kts | 1° |
| 2026-05-07 12:13 | 46.28771 | 15.97353 | 22172 ft | 420 kts | 359° |
| 2026-05-07 12:13 | 46.31691 | 15.97244 | 22760 ft | 419 kts | 349° |
| 2026-05-07 12:13 | 46.34550 | 15.96495 | 23364 ft | 418 kts | 342° |
| 2026-05-07 12:13 | 46.37402 | 15.95585 | 23894 ft | 421 kts | 342° |
| 2026-05-07 12:14 | 46.40271 | 15.94669 | 24360 ft | 424 kts | 342° |
| 2026-05-07 12:14 | 46.43166 | 15.93745 | 24796 ft | 428 kts | 342° |
| 2026-05-07 12:14 | 46.46085 | 15.92814 | 25225 ft | 431 kts | 342° |
| 2026-05-07 12:14 | 46.49033 | 15.91877 | 25652 ft | 435 kts | 342° |
| 2026-05-07 12:15 | 46.52007 | 15.90932 | 26063 ft | 439 kts | 342° |
| 2026-05-07 12:15 | 46.55000 | 15.89983 | 26481 ft | 442 kts | 342° |
| 2026-05-07 12:15 | 46.57977 | 15.89038 | 26884 ft | 446 kts | 342° |
| 2026-05-07 12:15 | 46.61022 | 15.88073 | 27294 ft | 449 kts | 341° |
| 2026-05-07 12:16 | 46.64083 | 15.87097 | 27691 ft | 452 kts | 341° |
| 2026-05-07 12:16 | 46.67171 | 15.86108 | 28096 ft | 456 kts | 341° |
| 2026-05-07 12:16 | 46.70281 | 15.85108 | 28502 ft | 459 kts | 341° |
| 2026-05-07 12:16 | 46.73413 | 15.84095 | 28880 ft | 463 kts | 341° |
| 2026-05-07 12:17 | 46.76571 | 15.83074 | 29272 ft | 466 kts | 341° |
| 2026-05-07 12:17 | 46.79750 | 15.82051 | 29652 ft | 470 kts | 341° |
| 2026-05-07 12:17 | 46.82952 | 15.81026 | 30020 ft | 473 kts | 341° |
| 2026-05-07 12:17 | 46.86171 | 15.79993 | 30346 ft | 475 kts | 341° |
| 2026-05-07 12:18 | 46.89413 | 15.78948 | 30690 ft | 478 kts | 341° |
| 2026-05-07 12:18 | 46.92666 | 15.77894 | 31034 ft | 480 kts | 341° |
| 2026-05-07 12:18 | 46.95938 | 15.76834 | 31342 ft | 482 kts | 341° |
| 2026-05-07 12:18 | 46.99222 | 15.75771 | 31679 ft | 485 kts | 341° |
| 2026-05-07 12:19 | 47.02512 | 15.74709 | 32129 ft | 483 kts | 342° |
| 2026-05-07 12:19 | 47.05789 | 15.73652 | 32609 ft | 482 kts | 341° |
| 2026-05-07 12:19 | 47.09058 | 15.72592 | 33073 ft | 480 kts | 341° |
| 2026-05-07 12:19 | 47.12316 | 15.71530 | 33562 ft | 479 kts | 341° |
| 2026-05-07 12:20 | 47.15565 | 15.70469 | 34016 ft | 478 kts | 341° |
| 2026-05-07 12:20 | 47.18767 | 15.69422 | 34376 ft | 478 kts | 342° |
| 2026-05-07 12:20 | 47.22012 | 15.68362 | 34764 ft | 476 kts | 342° |
| 2026-05-07 12:20 | 47.25240 | 15.67310 | 35143 ft | 475 kts | 342° |
| 2026-05-07 12:21 | 47.28466 | 15.66258 | 35475 ft | 474 kts | 342° |
| 2026-05-07 12:21 | 47.31675 | 15.65208 | 35778 ft | 472 kts | 342° |
| 2026-05-07 12:21 | 47.34882 | 15.64153 | 36120 ft | 471 kts | 342° |
| 2026-05-07 12:21 | 47.38076 | 15.63099 | 36410 ft | 470 kts | 342° |
| 2026-05-07 12:22 | 47.41268 | 15.62045 | 36700 ft | 470 kts | 342° |
| 2026-05-07 12:22 | 47.44459 | 15.60993 | 37016 ft | 469 kts | 342° |
| 2026-05-07 12:22 | 47.47639 | 15.59945 | 37395 ft | 467 kts | 343° |
| 2026-05-07 12:22 | 47.50810 | 15.58898 | 37670 ft | 467 kts | 343° |
| 2026-05-07 12:23 | 47.53977 | 15.57847 | 37908 ft | 467 kts | 343° |
| 2026-05-07 12:23 | 47.60265 | 15.55760 | 37995 ft | 465 kts | 343° |
| 2026-05-07 12:24 | 47.66634 | 15.53646 | 37989 ft | 474 kts | 343° |
| 2026-05-07 12:24 | 47.73143 | 15.51473 | 37993 ft | 484 kts | 343° |
| 2026-05-07 12:25 | 47.79770 | 15.49253 | 37994 ft | 491 kts | 343° |
| 2026-05-07 12:25 | 47.86452 | 15.47020 | 37992 ft | 493 kts | 343° |
| 2026-05-07 12:26 | 47.93131 | 15.44778 | 37992 ft | 492 kts | 343° |
| 2026-05-07 12:26 | 47.99821 | 15.42536 | 37988 ft | 492 kts | 343° |
| 2026-05-07 12:27 | 48.06491 | 15.40285 | 37995 ft | 491 kts | 343° |
| 2026-05-07 12:27 | 48.13155 | 15.38023 | 38001 ft | 491 kts | 343° |
| 2026-05-07 12:28 | 48.19820 | 15.35760 | 38001 ft | 491 kts | 343° |
| 2026-05-07 12:28 | 48.26480 | 15.33496 | 37996 ft | 491 kts | 343° |
| 2026-05-07 12:29 | 48.33135 | 15.31223 | 37993 ft | 491 kts | 343° |
| 2026-05-07 12:29 | 48.39795 | 15.28946 | 37990 ft | 491 kts | 343° |
| 2026-05-07 12:30 | 48.46448 | 15.26665 | 38009 ft | 490 kts | 343° |
| 2026-05-07 12:30 | 48.53101 | 15.24381 | 37999 ft | 491 kts | 343° |
| 2026-05-07 12:31 | 48.59760 | 15.22085 | 37990 ft | 491 kts | 343° |
| 2026-05-07 12:31 | 48.66376 | 15.19789 | 37979 ft | 491 kts | 343° |
| 2026-05-07 12:32 | 48.73033 | 15.17480 | 37976 ft | 491 kts | 343° |
| 2026-05-07 12:32 | 48.79694 | 15.15174 | 37984 ft | 491 kts | 343° |
| 2026-05-07 12:33 | 48.89677 | 15.11687 | 37973 ft | 491 kts | 343° |
| 2026-05-07 12:33 | 48.96273 | 15.09064 | 37994 ft | 489 kts | 341° |
| 2026-05-07 12:34 | 49.02794 | 15.06127 | 37988 ft | 488 kts | 340° |
| 2026-05-07 12:34 | 49.09265 | 15.03179 | 37979 ft | 488 kts | 340° |
| 2026-05-07 12:35 | 49.15797 | 15.00320 | 37966 ft | 488 kts | 341° |
| 2026-05-07 12:35 | 49.22338 | 14.97504 | 37976 ft | 488 kts | 341° |
| 2026-05-07 12:36 | 49.28884 | 14.94656 | 37960 ft | 489 kts | 341° |
| 2026-05-07 12:36 | 49.35421 | 14.91785 | 37946 ft | 489 kts | 340° |
| 2026-05-07 12:37 | 49.41955 | 14.88900 | 37952 ft | 489 kts | 340° |
| 2026-05-07 12:37 | 49.48500 | 14.86017 | 37974 ft | 489 kts | 341° |
| 2026-05-07 12:38 | 49.53943 | 14.83607 | 37967 ft | 489 kts | 341° |
| 2026-05-07 12:38 | 49.60478 | 14.80705 | 37965 ft | 489 kts | 341° |
| 2026-05-07 12:39 | 49.68077 | 14.77319 | 37956 ft | 489 kts | 341° |
| 2026-05-07 12:39 | 49.73555 | 14.74879 | 37960 ft | 489 kts | 341° |
| 2026-05-07 12:40 | 49.80060 | 14.71975 | 37956 ft | 489 kts | 341° |
| 2026-05-07 12:40 | 49.86604 | 14.69044 | 37952 ft | 490 kts | 341° |
| 2026-05-07 12:41 | 49.93155 | 14.66100 | 38002 ft | 490 kts | 341° |
| 2026-05-07 12:41 | 49.99696 | 14.63131 | 38000 ft | 489 kts | 341° |
| 2026-05-07 12:42 | 50.06239 | 14.60167 | 37998 ft | 489 kts | 341° |
| 2026-05-07 12:42 | 50.12782 | 14.57213 | 37992 ft | 489 kts | 341° |
| 2026-05-07 12:43 | 50.19279 | 14.54267 | 37991 ft | 489 kts | 341° |
| 2026-05-07 12:43 | 50.25813 | 14.51282 | 37990 ft | 489 kts | 341° |
| 2026-05-07 12:44 | 50.32353 | 14.48282 | 37986 ft | 489 kts | 341° |
| 2026-05-07 12:44 | 50.38894 | 14.45273 | 38002 ft | 490 kts | 341° |
| 2026-05-07 12:45 | 50.45440 | 14.42258 | 37985 ft | 490 kts | 341° |
| 2026-05-07 12:45 | 50.51984 | 14.39237 | 37971 ft | 491 kts | 341° |
| 2026-05-07 12:46 | 50.58537 | 14.36206 | 37960 ft | 491 kts | 341° |
| 2026-05-07 12:46 | 50.65092 | 14.33179 | 37960 ft | 491 kts | 341° |
| 2026-05-07 12:47 | 50.71605 | 14.30148 | 37972 ft | 491 kts | 341° |
| 2026-05-07 12:47 | 50.78153 | 14.27070 | 37969 ft | 491 kts | 341° |
| 2026-05-07 12:48 | 50.84701 | 14.23998 | 37966 ft | 491 kts | 341° |
| 2026-05-07 12:48 | 50.91309 | 14.21283 | 37991 ft | 492 kts | 350° |
| 2026-05-07 12:49 | 50.98086 | 14.19805 | 38008 ft | 491 kts | 351° |
| 2026-05-07 12:49 | 51.04750 | 14.17688 | 37987 ft | 486 kts | 337° |
| 2026-05-07 12:50 | 51.10558 | 14.12441 | 37984 ft | 478 kts | 317° |
| 2026-05-07 12:50 | 51.15571 | 14.05493 | 38007 ft | 478 kts | 316° |
| 2026-05-07 12:51 | 51.20590 | 13.98541 | 38007 ft | 478 kts | 316° |
| 2026-05-07 12:51 | 51.25568 | 13.91612 | 38012 ft | 478 kts | 316° |
| 2026-05-07 12:52 | 51.30581 | 13.84600 | 38012 ft | 479 kts | 316° |
| 2026-05-07 12:52 | 51.35590 | 13.77576 | 38003 ft | 479 kts | 316° |
| 2026-05-07 12:53 | 51.40591 | 13.70537 | 38007 ft | 479 kts | 316° |
| 2026-05-07 12:53 | 51.45588 | 13.63483 | 38009 ft | 479 kts | 316° |
| 2026-05-07 12:54 | 51.50587 | 13.56417 | 38040 ft | 479 kts | 316° |
| 2026-05-07 12:54 | 51.53391 | 13.52443 | 38037 ft | 479 kts | 316° |